メインページ
METAR-TAF:

METAR-TAF

空港 :

トゥーレ, グリーンランド

チューレ空軍基地

緯度: 76-32N, 経度: 068-42W, 海抜: 77m

現時点の気象観測

当レポートは46分前の18:58(UTC)に作成
南/南東の風 6kt
気温 -21°C
湿度 53%
気圧 1009 hPa
視程10km以上
晴天

METAR: BGTL 251858Z AUTO 16006KT 9999 CLR M21/M28 A2980 RMK AO2 SLP084 T12111277

時間: 16:44 (19:44 UTC)

予報

当レポートは18時間44分前の01:00(UTC)に作成
予報は25日の 01時(UTC)から 26日の 07時(UTC)まで有効
の風 9kt、東/北東から南東の間で変化する
視程10km以上
晴天
25日の 20時(UTC)から 25日の 21時(UTC)まで徐々に
東/南東の風 9kt、東/北東から南東の間で変化する
視程10km以上
高度15000ftの雲は散在している
26日の 02時(UTC)から 26日の 03時(UTC)まで徐々に
東/南東の風 12kt、東/北東から南東の間で変化する
視程: 2709m
高度12000ftの千切れ雲あり

TAF: BGTL 250100Z 2501/2607 10009KT 9999 SKC QNH2941INS WND 060V130 BECMG 2520/2521 12009KT 9999 SCT150 QNH2989INS WND 070V140 BECMG 2602/2603 12012KT 9999 BKN120 QNH3009INS WND 070V140 TXM20/2515Z TNM29/2501Z LAST NO AMDS AFT 2501 NEXT 2709

4,000以上の空港の気象観測と天気予報(METAR報とTAF報)

利用可能な観測所は地図上に黄色い丸と赤い丸で示す。

丸の上にカーソルを重ねると観測所名を参照できる。

次にクリックすると気象観測と天気予報を参照できる。

マップの切り替え:黒色「×」印の緑ボタンをクリックして拡大、「-」印の緑ボタンをクリックして縮小、緑色の三角印をクリックして隣りの地図に切り替え


METAR-TAF: